sensor_id;sensor_type;location;lat;lon;timestamp;pressure;altitude;pressure_sealevel;temperature;humidity
59729;BME280;45588;51.598;5.618;2022-07-06T00:00:57;102453.00;;;11.22;100.00
59729;BME280;45588;51.598;5.618;2022-07-06T00:03:23;102451.44;;;11.08;100.00
59729;BME280;45588;51.598;5.618;2022-07-06T00:05:48;102446.75;;;11.01;100.00
59729;BME280;45588;51.598;5.618;2022-07-06T00:08:13;102457.06;;;10.98;100.00
59729;BME280;45588;51.598;5.618;2022-07-06T00:10:38;102455.06;;;10.92;100.00
59729;BME280;45588;51.598;5.618;2022-07-06T00:13:04;102445.47;;;10.91;100.00
59729;BME280;45588;51.598;5.618;2022-07-06T00:15:29;102447.72;;;10.83;100.00
59729;BME280;45588;51.598;5.618;2022-07-06T00:17:54;102462.88;;;10.92;100.00
59729;BME280;45588;51.598;5.618;2022-07-06T00:20:20;102459.53;;;10.77;100.00
59729;BME280;45588;51.598;5.618;2022-07-06T00:22:45;102464.25;;;10.84;100.00
59729;BME280;45588;51.598;5.618;2022-07-06T00:25:10;102458.66;;;10.58;100.00
59729;BME280;45588;51.598;5.618;2022-07-06T00:27:35;102462.75;;;10.53;100.00
59729;BME280;45588;51.598;5.618;2022-07-06T00:30:01;102472.19;;;10.51;100.00
59729;BME280;45588;51.598;5.618;2022-07-06T00:32:26;102463.88;;;10.58;100.00
59729;BME280;45588;51.598;5.618;2022-07-06T00:34:52;102467.22;;;10.56;100.00
59729;BME280;45588;51.598;5.618;2022-07-06T00:37:17;102461.03;;;10.36;100.00
59729;BME280;45588;51.598;5.618;2022-07-06T00:39:43;102466.06;;;10.33;100.00
59729;BME280;45588;51.598;5.618;2022-07-06T00:42:08;102455.97;;;10.39;100.00
59729;BME280;45588;51.598;5.618;2022-07-06T00:44:33;102458.56;;;10.23;100.00
59729;BME280;45588;51.598;5.618;2022-07-06T00:46:59;102466.06;;;10.33;100.00
59729;BME280;45588;51.598;5.618;2022-07-06T00:49:24;102462.09;;;10.23;100.00
59729;BME280;45588;51.598;5.618;2022-07-06T00:52:08;102456.50;;;10.15;100.00
59729;BME280;45588;51.598;5.618;2022-07-06T00:54:34;102461.41;;;10.27;100.00
59729;BME280;45588;51.598;5.618;2022-07-06T00:57:01;102460.44;;;10.25;100.00
59729;BME280;45588;51.598;5.618;2022-07-06T00:59:27;102463.94;;;10.26;100.00
59729;BME280;45588;51.598;5.618;2022-07-06T01:01:52;102468.19;;;10.24;100.00
59729;BME280;45588;51.598;5.618;2022-07-06T01:04:17;102461.53;;;10.12;100.00
59729;BME280;45588;51.598;5.618;2022-07-06T01:06:45;102459.25;;;10.18;100.00
59729;BME280;45588;51.598;5.618;2022-07-06T01:09:11;102453.94;;;10.17;100.00
59729;BME280;45588;51.598;5.618;2022-07-06T01:11:37;102461.22;;;10.06;100.00
59729;BME280;45588;51.598;5.618;2022-07-06T01:14:02;102447.13;;;10.03;100.00
59729;BME280;45588;51.598;5.618;2022-07-06T01:16:27;102456.03;;;10.06;100.00
59729;BME280;45588;51.598;5.618;2022-07-06T01:18:53;102450.31;;;9.97;100.00
59729;BME280;45588;51.598;5.618;2022-07-06T01:21:18;102462.00;;;10.05;100.00
59729;BME280;45588;51.598;5.618;2022-07-06T01:23:45;102455.22;;;9.91;100.00
59729;BME280;45588;51.598;5.618;2022-07-06T01:26:14;102454.75;;;9.98;100.00
59729;BME280;45588;51.598;5.618;2022-07-06T01:28:40;102457.25;;;9.96;100.00
59729;BME280;45588;51.598;5.618;2022-07-06T01:31:05;102463.28;;;9.95;100.00
59729;BME280;45588;51.598;5.618;2022-07-06T01:33:31;102462.31;;;9.93;100.00
59729;BME280;45588;51.598;5.618;2022-07-06T01:35:56;102455.47;;;9.79;100.00
59729;BME280;45588;51.598;5.618;2022-07-06T01:38:21;102450.53;;;9.84;100.00
59729;BME280;45588;51.598;5.618;2022-07-06T01:40:47;102455.31;;;9.76;100.00
59729;BME280;45588;51.598;5.618;2022-07-06T01:43:12;102456.47;;;9.81;100.00
59729;BME280;45588;51.598;5.618;2022-07-06T01:45:37;102455.91;;;9.70;100.00
59729;BME280;45588;51.598;5.618;2022-07-06T01:48:06;102450.03;;;9.74;100.00
59729;BME280;45588;51.598;5.618;2022-07-06T01:50:31;102453.53;;;9.75;100.00
59729;BME280;45588;51.598;5.618;2022-07-06T01:52:59;102454.09;;;9.69;100.00
59729;BME280;45588;51.598;5.618;2022-07-06T01:55:25;102457.03;;;9.75;100.00
59729;BME280;45588;51.598;5.618;2022-07-06T01:57:50;102450.84;;;9.73;100.00
59729;BME280;45588;51.598;5.618;2022-07-06T02:00:15;102456.78;;;9.71;100.00
59729;BME280;45588;51.598;5.618;2022-07-06T02:02:40;102448.84;;;9.68;100.00
59729;BME280;45588;51.598;5.618;2022-07-06T02:05:06;102450.38;;;9.64;100.00
59729;BME280;45588;51.598;5.618;2022-07-06T02:07:31;102444.13;;;9.61;100.00
59729;BME280;45588;51.598;5.618;2022-07-06T02:09:57;102455.25;;;9.58;100.00
59729;BME280;45588;51.598;5.618;2022-07-06T02:12:22;102461.19;;;9.56;100.00
59729;BME280;45588;51.598;5.618;2022-07-06T02:14:47;102452.16;;;9.49;100.00
59729;BME280;45588;51.598;5.618;2022-07-06T02:17:12;102454.50;;;9.44;100.00
59729;BME280;45588;51.598;5.618;2022-07-06T02:19:38;102459.22;;;9.51;100.00
59729;BME280;45588;51.598;5.618;2022-07-06T02:22:03;102458.34;;;9.51;100.00
59729;BME280;45588;51.598;5.618;2022-07-06T02:24:28;102460.06;;;9.50;100.00
59729;BME280;45588;51.598;5.618;2022-07-06T02:26:53;102454.50;;;9.44;100.00
59729;BME280;45588;51.598;5.618;2022-07-06T02:29:19;102458.97;;;9.47;100.00
59729;BME280;45588;51.598;5.618;2022-07-06T02:31:44;102459.81;;;9.46;100.00
59729;BME280;45588;51.598;5.618;2022-07-06T02:34:10;102448.31;;;9.42;100.00
59729;BME280;45588;51.598;5.618;2022-07-06T02:36:35;102451.03;;;9.44;100.00
59729;BME280;45588;51.598;5.618;2022-07-06T02:39:00;102454.25;;;9.40;100.00
59729;BME280;45588;51.598;5.618;2022-07-06T02:41:26;102453.38;;;9.39;100.00
59729;BME280;45588;51.598;5.618;2022-07-06T02:43:51;102455.91;;;9.38;100.00
59729;BME280;45588;51.598;5.618;2022-07-06T02:46:16;102454.91;;;9.36;100.00
59729;BME280;45588;51.598;5.618;2022-07-06T02:48:41;102447.03;;;9.34;100.00
59729;BME280;45588;51.598;5.618;2022-07-06T02:51:07;102445.63;;;9.24;100.00
59729;BME280;45588;51.598;5.618;2022-07-06T02:53:32;102455.56;;;9.31;100.00
59729;BME280;45588;51.598;5.618;2022-07-06T02:55:57;102449.38;;;9.29;100.00
59729;BME280;45588;51.598;5.618;2022-07-06T02:58:23;102456.28;;;9.29;100.00
59729;BME280;45588;51.598;5.618;2022-07-06T03:00:48;102456.22;;;9.27;100.00
59729;BME280;45588;51.598;5.618;2022-07-06T03:03:13;102463.03;;;9.25;100.00
59729;BME280;45588;51.598;5.618;2022-07-06T03:05:38;102464.03;;;9.27;100.00
59729;BME280;45588;51.598;5.618;2022-07-06T03:08:04;102463.94;;;9.26;100.00
59729;BME280;45588;51.598;5.618;2022-07-06T03:10:29;102464.66;;;9.23;100.00
59729;BME280;45588;51.598;5.618;2022-07-06T03:12:54;102469.03;;;9.24;100.00
59729;BME280;45588;51.598;5.618;2022-07-06T03:15:20;102461.06;;;9.21;100.00
59729;BME280;45588;51.598;5.618;2022-07-06T03:17:45;102470.47;;;9.19;100.00
59729;BME280;45588;51.598;5.618;2022-07-06T03:20:10;102468.72;;;9.18;100.00
59729;BME280;45588;51.598;5.618;2022-07-06T03:22:36;102470.69;;;9.22;100.00
59729;BME280;45588;51.598;5.618;2022-07-06T03:25:01;102457.69;;;9.22;100.00
59729;BME280;45588;51.598;5.618;2022-07-06T03:27:26;102462.22;;;9.26;100.00
59729;BME280;45588;51.598;5.618;2022-07-06T03:29:52;102467.50;;;9.28;100.00
59729;BME280;45588;51.598;5.618;2022-07-06T03:32:17;102469.13;;;9.26;100.00
59729;BME280;45588;51.598;5.618;2022-07-06T03:34:42;102466.94;;;9.34;100.00
59729;BME280;45588;51.598;5.618;2022-07-06T03:37:08;102470.59;;;9.37;100.00
59729;BME280;45588;51.598;5.618;2022-07-06T03:39:33;102463.19;;;9.28;100.00
59729;BME280;45588;51.598;5.618;2022-07-06T03:41:58;102465.47;;;9.39;100.00
59729;BME280;45588;51.598;5.618;2022-07-06T03:44:23;102471.09;;;9.46;100.00
59729;BME280;45588;51.598;5.618;2022-07-06T03:46:49;102465.00;;;9.62;100.00
59729;BME280;45588;51.598;5.618;2022-07-06T03:49:16;102458.22;;;9.82;100.00
59729;BME280;45588;51.598;5.618;2022-07-06T03:51:41;102466.44;;;10.06;100.00
59729;BME280;45588;51.598;5.618;2022-07-06T03:54:06;102473.50;;;10.43;100.00
59729;BME280;45588;51.598;5.618;2022-07-06T03:56:31;102465.88;;;10.46;100.00
59729;BME280;45588;51.598;5.618;2022-07-06T03:58:59;102469.38;;;10.82;100.00
59729;BME280;45588;51.598;5.618;2022-07-06T04:01:25;102452.97;;;10.85;100.00
59729;BME280;45588;51.598;5.618;2022-07-06T04:03:50;102470.03;;;10.78;100.00
59729;BME280;45588;51.598;5.618;2022-07-06T04:06:17;102471.19;;;11.03;100.00
59729;BME280;45588;51.598;5.618;2022-07-06T04:08:42;102468.22;;;10.95;100.00
59729;BME280;45588;51.598;5.618;2022-07-06T04:11:08;102463.34;;;10.83;100.00
59729;BME280;45588;51.598;5.618;2022-07-06T04:13:33;102477.56;;;10.54;100.00
59729;BME280;45588;51.598;5.618;2022-07-06T04:15:58;102468.25;;;10.59;100.00
59729;BME280;45588;51.598;5.618;2022-07-06T04:18:24;102473.19;;;10.53;100.00
59729;BME280;45588;51.598;5.618;2022-07-06T04:20:49;102465.88;;;10.46;100.00
59729;BME280;45588;51.598;5.618;2022-07-06T04:23:15;102468.88;;;10.37;100.00
59729;BME280;45588;51.598;5.618;2022-07-06T04:25:40;102472.91;;;10.14;100.00
59729;BME280;45588;51.598;5.618;2022-07-06T04:28:05;102465.03;;;10.29;100.00
59729;BME280;45588;51.598;5.618;2022-07-06T04:30:31;102462.41;;;10.29;100.00
59729;BME280;45588;51.598;5.618;2022-07-06T04:32:56;102459.09;;;10.15;100.00
59729;BME280;45588;51.598;5.618;2022-07-06T04:35:22;102456.31;;;10.29;100.00
59729;BME280;45588;51.598;5.618;2022-07-06T04:37:47;102470.75;;;10.40;100.00
59729;BME280;45588;51.598;5.618;2022-07-06T04:40:13;102464.38;;;10.33;100.00
59729;BME280;45588;51.598;5.618;2022-07-06T04:42:39;102462.56;;;10.50;100.00
59729;BME280;45588;51.598;5.618;2022-07-06T04:45:05;102447.91;;;10.52;100.00
59729;BME280;45588;51.598;5.618;2022-07-06T04:47:30;102451.13;;;10.65;100.00
59729;BME280;45588;51.598;5.618;2022-07-06T04:49:56;102454.09;;;10.72;100.00
59729;BME280;45588;51.598;5.618;2022-07-06T04:52:21;102459.19;;;10.69;100.00
59729;BME280;45588;51.598;5.618;2022-07-06T04:54:46;102452.97;;;10.85;100.00
59729;BME280;45588;51.598;5.618;2022-07-06T04:57:11;102459.53;;;10.95;100.00
59729;BME280;45588;51.598;5.618;2022-07-06T04:59:37;102463.31;;;11.01;100.00
59729;BME280;45588;51.598;5.618;2022-07-06T05:02:02;102465.38;;;11.09;100.00
59729;BME280;45588;51.598;5.618;2022-07-06T05:04:27;102458.69;;;11.14;100.00
59729;BME280;45588;51.598;5.618;2022-07-06T05:06:53;102451.66;;;11.13;100.00
59729;BME280;45588;51.598;5.618;2022-07-06T05:09:18;102451.63;;;11.31;100.00
59729;BME280;45588;51.598;5.618;2022-07-06T05:11:43;102460.97;;;11.45;100.00
59729;BME280;45588;51.598;5.618;2022-07-06T05:14:10;102461.53;;;11.57;100.00
59729;BME280;45588;51.598;5.618;2022-07-06T05:16:35;102468.31;;;11.54;100.00
59729;BME280;45588;51.598;5.618;2022-07-06T05:19:00;102472.66;;;11.73;100.00
59729;BME280;45588;51.598;5.618;2022-07-06T05:21:26;102467.69;;;11.79;100.00
59729;BME280;45588;51.598;5.618;2022-07-06T05:23:51;102474.50;;;11.75;100.00
59729;BME280;45588;51.598;5.618;2022-07-06T05:26:16;102476.94;;;11.90;100.00
59729;BME280;45588;51.598;5.618;2022-07-06T05:28:42;102472.94;;;11.98;100.00
59729;BME280;45588;51.598;5.618;2022-07-06T05:31:07;102473.63;;;11.94;100.00
59729;BME280;45588;51.598;5.618;2022-07-06T05:33:33;102477.19;;;11.96;100.00
59729;BME280;45588;51.598;5.618;2022-07-06T05:35:58;102477.31;;;12.19;100.00
59729;BME280;45588;51.598;5.618;2022-07-06T05:38:23;102470.63;;;12.25;100.00
59729;BME280;45588;51.598;5.618;2022-07-06T05:40:48;102471.44;;;12.24;100.00
59729;BME280;45588;51.598;5.618;2022-07-06T05:43:14;102475.44;;;12.37;100.00
59729;BME280;45588;51.598;5.618;2022-07-06T05:45:39;102483.88;;;12.51;100.00
59729;BME280;45588;51.598;5.618;2022-07-06T05:48:04;102483.75;;;12.69;100.00
59729;BME280;45588;51.598;5.618;2022-07-06T05:50:48;102488.13;;;12.70;100.00
59729;BME280;45588;51.598;5.618;2022-07-06T05:53:13;102484.78;;;12.51;100.00
59729;BME280;45588;51.598;5.618;2022-07-06T05:55:39;102483.88;;;12.51;100.00
59729;BME280;45588;51.598;5.618;2022-07-06T05:58:04;102496.31;;;12.77;100.00
59729;BME280;45588;51.598;5.618;2022-07-06T06:00:30;102487.56;;;12.77;100.00
59729;BME280;45588;51.598;5.618;2022-07-06T06:02:55;102492.97;;;12.82;100.00
59729;BME280;45588;51.598;5.618;2022-07-06T06:05:21;102495.13;;;13.14;100.00
59729;BME280;45588;51.598;5.618;2022-07-06T06:07:46;102499.00;;;13.02;100.00
59729;BME280;45588;51.598;5.618;2022-07-06T06:10:13;102491.16;;;13.24;100.00
59729;BME280;45588;51.598;5.618;2022-07-06T06:12:40;102500.28;;;13.56;100.00
59729;BME280;45588;51.598;5.618;2022-07-06T06:15:07;102496.59;;;13.51;100.00
59729;BME280;45588;51.598;5.618;2022-07-06T06:17:33;102493.47;;;13.85;100.00
59729;BME280;45588;51.598;5.618;2022-07-06T06:20:00;102498.78;;;14.11;100.00
59729;BME280;45588;51.598;5.618;2022-07-06T06:22:25;102503.06;;;14.35;100.00
59729;BME280;45588;51.598;5.618;2022-07-06T06:24:50;102496.09;;;14.61;100.00
59729;BME280;45588;51.598;5.618;2022-07-06T06:27:16;102497.84;;;15.16;100.00
59729;BME280;45588;51.598;5.618;2022-07-06T06:29:41;102488.91;;;15.38;100.00
59729;BME280;45588;51.598;5.618;2022-07-06T06:32:07;102495.78;;;15.65;100.00
59729;BME280;45588;51.598;5.618;2022-07-06T06:34:32;102498.53;;;15.98;100.00
59729;BME280;45588;51.598;5.618;2022-07-06T06:36:58;102494.47;;;16.11;99.53
59729;BME280;45588;51.598;5.618;2022-07-06T06:39:24;102494.97;;;15.96;98.74
59729;BME280;45588;51.598;5.618;2022-07-06T06:41:49;102488.50;;;16.16;100.00
59729;BME280;45588;51.598;5.618;2022-07-06T06:44:14;102488.09;;;16.34;90.29
59729;BME280;45588;51.598;5.618;2022-07-06T06:46:40;102492.81;;;16.14;89.89
59729;BME280;45588;51.598;5.618;2022-07-06T06:49:06;102487.63;;;16.16;90.79
59729;BME280;45588;51.598;5.618;2022-07-06T06:51:32;102498.88;;;16.12;87.74
59729;BME280;45588;51.598;5.618;2022-07-06T06:53:57;102492.34;;;15.97;87.52
59729;BME280;45588;51.598;5.618;2022-07-06T06:56:24;102501.25;;;16.02;89.04
59729;BME280;45588;51.598;5.618;2022-07-06T06:58:49;102498.84;;;16.10;89.83
59729;BME280;45588;51.598;5.618;2022-07-06T07:01:14;102501.59;;;16.15;90.18
59729;BME280;45588;51.598;5.618;2022-07-06T07:03:39;102502.56;;;16.18;87.35
59729;BME280;45588;51.598;5.618;2022-07-06T07:06:05;102499.00;;;16.16;87.50
59729;BME280;45588;51.598;5.618;2022-07-06T07:08:30;102505.78;;;16.41;89.99
59729;BME280;45588;51.598;5.618;2022-07-06T07:10:55;102501.34;;;16.39;88.55
59729;BME280;45588;51.598;5.618;2022-07-06T07:13:21;102494.78;;;16.58;88.73
59729;BME280;45588;51.598;5.618;2022-07-06T07:15:46;102502.56;;;16.52;88.64
59729;BME280;45588;51.598;5.618;2022-07-06T07:18:11;102506.25;;;16.60;87.71
59729;BME280;45588;51.598;5.618;2022-07-06T07:20:36;102511.88;;;16.74;86.62
59729;BME280;45588;51.598;5.618;2022-07-06T07:23:02;102501.16;;;17.02;86.36
59729;BME280;45588;51.598;5.618;2022-07-06T07:25:27;102508.25;;;16.70;85.46
59729;BME280;45588;51.598;5.618;2022-07-06T07:27:53;102507.94;;;16.58;85.47
59729;BME280;45588;51.598;5.618;2022-07-06T07:30:19;102498.66;;;16.72;84.40
59729;BME280;45588;51.598;5.618;2022-07-06T07:32:44;102514.31;;;16.67;84.05
59729;BME280;45588;51.598;5.618;2022-07-06T07:35:09;102513.50;;;16.69;83.14
59729;BME280;45588;51.598;5.618;2022-07-06T07:37:35;102508.06;;;16.62;84.09
59729;BME280;45588;51.598;5.618;2022-07-06T07:40:00;102505.44;;;16.62;82.36
59729;BME280;45588;51.598;5.618;2022-07-06T07:42:26;102519.78;;;16.75;80.51
59729;BME280;45588;51.598;5.618;2022-07-06T07:44:51;102522.56;;;16.80;82.21
59729;BME280;45588;51.598;5.618;2022-07-06T07:47:17;102513.31;;;16.62;81.02
59729;BME280;45588;51.598;5.618;2022-07-06T07:49:42;102508.19;;;16.67;82.34
59729;BME280;45588;51.598;5.618;2022-07-06T07:52:08;102511.19;;;16.46;80.58
59729;BME280;45588;51.598;5.618;2022-07-06T07:54:33;102498.28;;;16.92;83.01
59729;BME280;45588;51.598;5.618;2022-07-06T07:56:59;102516.91;;;16.99;81.66
59729;BME280;45588;51.598;5.618;2022-07-06T07:59:24;102508.13;;;17.00;84.08
59729;BME280;45588;51.598;5.618;2022-07-06T08:01:49;102503.13;;;17.11;84.11
59729;BME280;45588;51.598;5.618;2022-07-06T08:04:14;102505.13;;;16.83;80.82
59729;BME280;45588;51.598;5.618;2022-07-06T08:06:40;102501.41;;;16.77;80.44
59729;BME280;45588;51.598;5.618;2022-07-06T08:09:05;102502.16;;;17.07;81.77
59729;BME280;45588;51.598;5.618;2022-07-06T08:11:35;102496.25;;;17.18;81.13
59729;BME280;45588;51.598;5.618;2022-07-06T08:14:02;102499.53;;;17.48;78.75
59729;BME280;45588;51.598;5.618;2022-07-06T08:16:28;102489.19;;;17.58;79.64
59729;BME280;45588;51.598;5.618;2022-07-06T08:18:53;102486.09;;;17.77;77.44
59729;BME280;45588;51.598;5.618;2022-07-06T08:21:18;102487.09;;;17.84;76.81
59729;BME280;45588;51.598;5.618;2022-07-06T08:23:44;102494.13;;;17.82;75.53
59729;BME280;45588;51.598;5.618;2022-07-06T08:26:09;102493.72;;;18.09;73.94
59729;BME280;45588;51.598;5.618;2022-07-06T08:28:34;102495.56;;;18.13;76.14
59729;BME280;45588;51.598;5.618;2022-07-06T08:31:00;102497.72;;;17.87;77.48
59729;BME280;45588;51.598;5.618;2022-07-06T08:33:25;102490.13;;;17.60;77.94
59729;BME280;45588;51.598;5.618;2022-07-06T08:35:50;102491.06;;;17.62;75.99
59729;BME280;45588;51.598;5.618;2022-07-06T08:38:16;102483.97;;;17.61;77.51
59729;BME280;45588;51.598;5.618;2022-07-06T08:40:43;102491.50;;;17.83;75.02
59729;BME280;45588;51.598;5.618;2022-07-06T08:43:10;102490.75;;;17.90;77.29
59729;BME280;45588;51.598;5.618;2022-07-06T08:45:36;102491.44;;;17.80;72.41
59729;BME280;45588;51.598;5.618;2022-07-06T08:48:06;102488.81;;;17.80;72.88
59729;BME280;45588;51.598;5.618;2022-07-06T08:50:33;102485.53;;;17.92;72.39
59729;BME280;45588;51.598;5.618;2022-07-06T08:52:59;102486.78;;;18.14;69.82
59729;BME280;45588;51.598;5.618;2022-07-06T08:55:25;102484.41;;;18.28;65.94
59729;BME280;45588;51.598;5.618;2022-07-06T08:57:51;102481.03;;;18.36;65.45
59729;BME280;45588;51.598;5.618;2022-07-06T09:00:16;102468.13;;;18.53;67.29
59729;BME280;45588;51.598;5.618;2022-07-06T09:02:41;102474.13;;;18.99;67.46
59729;BME280;45588;51.598;5.618;2022-07-06T09:05:09;102469.56;;;18.86;66.83
59729;BME280;45588;51.598;5.618;2022-07-06T09:07:38;102477.34;;;18.78;69.60
59729;BME280;45588;51.598;5.618;2022-07-06T09:10:05;102467.09;;;18.42;69.05
59729;BME280;45588;51.598;5.618;2022-07-06T09:12:32;102469.97;;;18.59;69.56
59729;BME280;45588;51.598;5.618;2022-07-06T09:14:57;102467.56;;;18.74;62.21
59729;BME280;45588;51.598;5.618;2022-07-06T09:17:29;102464.19;;;18.80;61.66
59729;BME280;45588;51.598;5.618;2022-07-06T09:19:56;102466.59;;;18.68;62.19
59729;BME280;45588;51.598;5.618;2022-07-06T09:22:26;102476.69;;;18.93;61.22
59729;BME280;45588;51.598;5.618;2022-07-06T09:24:52;102474.25;;;19.06;61.33
59729;BME280;45588;51.598;5.618;2022-07-06T09:27:18;102476.75;;;18.96;58.30
59729;BME280;45588;51.598;5.618;2022-07-06T09:29:44;102472.06;;;18.78;61.77
59729;BME280;45588;51.598;5.618;2022-07-06T09:32:10;102468.63;;;18.83;62.81
59729;BME280;45588;51.598;5.618;2022-07-06T09:34:42;102469.25;;;19.29;63.79
59729;BME280;45588;51.598;5.618;2022-07-06T09:37:08;102462.34;;;19.40;64.86
59729;BME280;45588;51.598;5.618;2022-07-06T09:39:33;102466.16;;;19.65;63.95
59729;BME280;45588;51.598;5.618;2022-07-06T09:42:00;102475.31;;;19.21;61.76
59729;BME280;45588;51.598;5.618;2022-07-06T09:44:30;102473.94;;;18.86;61.33
59729;BME280;45588;51.598;5.618;2022-07-06T09:46:57;102476.31;;;18.72;64.07
59729;BME280;45588;51.598;5.618;2022-07-06T09:49:24;102466.63;;;18.69;60.87
59729;BME280;45588;51.598;5.618;2022-07-06T09:51:55;102470.25;;;19.37;59.57
59729;BME280;45588;51.598;5.618;2022-07-06T09:54:21;102472.22;;;19.53;60.63
59729;BME280;45588;51.598;5.618;2022-07-06T09:56:48;102476.44;;;19.39;58.57
59729;BME280;45588;51.598;5.618;2022-07-06T09:59:23;102483.38;;;19.31;55.38
59729;BME280;45588;51.598;5.618;2022-07-06T10:01:54;102473.16;;;19.58;55.36
59729;BME280;45588;51.598;5.618;2022-07-06T10:04:21;102469.94;;;19.81;53.70
59729;BME280;45588;51.598;5.618;2022-07-06T10:06:47;102479.81;;;19.99;56.08
59729;BME280;45588;51.598;5.618;2022-07-06T10:09:13;102476.91;;;19.74;61.22
59729;BME280;45588;51.598;5.618;2022-07-06T10:11:45;102477.84;;;19.11;58.44
59729;BME280;45588;51.598;5.618;2022-07-06T10:14:15;102485.44;;;18.89;59.65
59729;BME280;45588;51.598;5.618;2022-07-06T10:16:42;102492.13;;;18.69;58.22
59729;BME280;45588;51.598;5.618;2022-07-06T10:19:08;102484.97;;;18.60;57.67
59729;BME280;45588;51.598;5.618;2022-07-06T10:21:38;102482.88;;;18.94;59.56
59729;BME280;45588;51.598;5.618;2022-07-06T10:24:08;102493.69;;;19.12;59.82
59729;BME280;45588;51.598;5.618;2022-07-06T10:26:35;102484.41;;;19.40;61.74
59729;BME280;45588;51.598;5.618;2022-07-06T10:29:02;102482.78;;;19.55;61.09
59729;BME280;45588;51.598;5.618;2022-07-06T10:31:29;102481.06;;;19.57;58.13
59729;BME280;45588;51.598;5.618;2022-07-06T10:34:02;102486.72;;;19.87;59.19
59729;BME280;45588;51.598;5.618;2022-07-06T10:36:28;102473.44;;;19.81;55.91
59729;BME280;45588;51.598;5.618;2022-07-06T10:38:54;102479.75;;;19.96;55.48
59729;BME280;45588;51.598;5.618;2022-07-06T10:41:30;102477.22;;;20.03;57.59
59729;BME280;45588;51.598;5.618;2022-07-06T10:43:56;102486.06;;;19.34;59.80
59729;BME280;45588;51.598;5.618;2022-07-06T10:46:23;102482.28;;;19.15;57.11
59729;BME280;45588;51.598;5.618;2022-07-06T10:48:52;102482.69;;;18.81;57.31
59729;BME280;45588;51.598;5.618;2022-07-06T10:51:28;102481.25;;;19.03;58.08
59729;BME280;45588;51.598;5.618;2022-07-06T10:54:11;102477.94;;;19.20;56.55
59729;BME280;45588;51.598;5.618;2022-07-06T10:56:40;102478.88;;;19.23;56.51
59729;BME280;45588;51.598;5.618;2022-07-06T10:59:17;102482.22;;;19.12;61.65
59729;BME280;45588;51.598;5.618;2022-07-06T11:02:14;102478.03;;;19.28;57.48
59729;BME280;45588;51.598;5.618;2022-07-06T11:04:47;102468.56;;;19.43;55.52
59729;BME280;45588;51.598;5.618;2022-07-06T11:07:15;102472.97;;;19.44;61.90
59729;BME280;45588;51.598;5.618;2022-07-06T11:09:41;102467.13;;;19.00;57.94
59729;BME280;45588;51.598;5.618;2022-07-06T11:12:17;102478.22;;;18.77;58.50
59729;BME280;45588;51.598;5.618;2022-07-06T11:14:44;102468.00;;;19.02;57.22
59729;BME280;45588;51.598;5.618;2022-07-06T11:17:10;102466.72;;;19.36;61.08
59729;BME280;45588;51.598;5.618;2022-07-06T11:19:36;102468.31;;;19.25;58.37
59729;BME280;45588;51.598;5.618;2022-07-06T11:22:09;102472.34;;;19.64;59.05
59729;BME280;45588;51.598;5.618;2022-07-06T11:24:40;102470.94;;;19.94;61.73
59729;BME280;45588;51.598;5.618;2022-07-06T11:27:06;102469.31;;;20.09;60.45
59729;BME280;45588;51.598;5.618;2022-07-06T11:29:33;102460.50;;;20.09;59.86
59729;BME280;45588;51.598;5.618;2022-07-06T11:32:00;102473.19;;;19.63;56.25
59729;BME280;45588;51.598;5.618;2022-07-06T11:34:33;102466.50;;;19.91;56.34
59729;BME280;45588;51.598;5.618;2022-07-06T11:37:13;102466.00;;;19.50;55.79
59729;BME280;45588;51.598;5.618;2022-07-06T11:39:44;102462.34;;;19.40;54.63
59729;BME280;45588;51.598;5.618;2022-07-06T11:42:11;102455.47;;;19.54;60.88
59729;BME280;45588;51.598;5.618;2022-07-06T11:44:37;102449.50;;;19.67;55.88
59729;BME280;45588;51.598;5.618;2022-07-06T11:47:03;102443.03;;;20.26;56.14
59729;BME280;45588;51.598;5.618;2022-07-06T11:49:30;102452.19;;;20.65;55.54
59729;BME280;45588;51.598;5.618;2022-07-06T11:51:56;102438.81;;;20.51;52.49
59729;BME280;45588;51.598;5.618;2022-07-06T11:54:23;102436.38;;;20.81;53.84
59729;BME280;45588;51.598;5.618;2022-07-06T11:56:53;102432.88;;;20.86;55.02
59729;BME280;45588;51.598;5.618;2022-07-06T11:59:24;102424.38;;;21.49;55.13
59729;BME280;45588;51.598;5.618;2022-07-06T12:01:50;102427.09;;;21.67;56.10
59729;BME280;45588;51.598;5.618;2022-07-06T12:04:24;102434.16;;;21.71;52.43
59729;BME280;45588;51.598;5.618;2022-07-06T12:06:49;102424.38;;;21.46;50.75
59729;BME280;45588;51.598;5.618;2022-07-06T12:09:15;102434.06;;;21.41;50.43
59729;BME280;45588;51.598;5.618;2022-07-06T12:11:40;102429.69;;;21.61;51.81
59729;BME280;45588;51.598;5.618;2022-07-06T12:14:18;102429.66;;;21.44;53.36
59729;BME280;45588;51.598;5.618;2022-07-06T12:16:46;102427.69;;;21.00;52.50
59729;BME280;45588;51.598;5.618;2022-07-06T12:19:11;102423.25;;;20.94;54.48
59729;BME280;45588;51.598;5.618;2022-07-06T12:21:48;102419.81;;;21.22;54.38
59729;BME280;45588;51.598;5.618;2022-07-06T12:24:34;102407.59;;;21.59;55.81
59729;BME280;45588;51.598;5.618;2022-07-06T12:27:13;102400.59;;;21.86;53.45
59729;BME280;45588;51.598;5.618;2022-07-06T12:29:39;102403.25;;;21.98;52.50
59729;BME280;45588;51.598;5.618;2022-07-06T12:32:05;102410.25;;;21.56;49.75
59729;BME280;45588;51.598;5.618;2022-07-06T12:34:31;102400.44;;;21.38;50.61
59729;BME280;45588;51.598;5.618;2022-07-06T12:37:05;102404.94;;;21.42;53.00
59729;BME280;45588;51.598;5.618;2022-07-06T12:39:31;102404.50;;;20.62;54.15
59729;BME280;45588;51.598;5.618;2022-07-06T12:42:04;102408.34;;;21.26;57.03
59729;BME280;45588;51.598;5.618;2022-07-06T12:44:30;102398.72;;;21.42;53.64